sensor_id;sensor_type;location;lat;lon;timestamp;pressure;altitude;pressure_sealevel;temperature;humidity
46392;BME280;32098;49.448;7.904;2023-03-03T00:00:01;98447.41;;;-1.55;69.67
46392;BME280;32098;49.448;7.904;2023-03-03T00:02:37;98451.34;;;-1.69;70.61
46392;BME280;32098;49.448;7.904;2023-03-03T00:05:04;98452.38;;;-1.62;70.58
46392;BME280;32098;49.448;7.904;2023-03-03T00:07:31;98450.69;;;-1.53;69.80
46392;BME280;32098;49.448;7.904;2023-03-03T00:09:57;98451.63;;;-1.45;71.03
46392;BME280;32098;49.448;7.904;2023-03-03T00:12:29;98448.28;;;-1.47;69.99
46392;BME280;32098;49.448;7.904;2023-03-03T00:14:56;98456.09;;;-1.55;69.98
46392;BME280;32098;49.448;7.904;2023-03-03T00:17:26;98448.81;;;-1.61;69.58
46392;BME280;32098;49.448;7.904;2023-03-03T00:19:53;98439.06;;;-1.68;69.99
46392;BME280;32098;49.448;7.904;2023-03-03T00:22:27;98428.75;;;-1.70;69.33
46392;BME280;32098;49.448;7.904;2023-03-03T00:27:48;98457.47;;;-1.78;69.97
46392;BME280;32098;49.448;7.904;2023-03-03T00:30:26;98454.50;;;-1.65;70.06
46392;BME280;32098;49.448;7.904;2023-03-03T00:32:54;98462.56;;;-1.59;69.23
46392;BME280;32098;49.448;7.904;2023-03-03T00:37:58;98459.59;;;-1.46;67.73
46392;BME280;32098;49.448;7.904;2023-03-03T00:43:16;98464.75;;;-1.54;68.53
46392;BME280;32098;49.448;7.904;2023-03-03T00:53:48;98462.47;;;-1.67;70.02
46392;BME280;32098;49.448;7.904;2023-03-03T00:56:15;98471.16;;;-1.94;69.65
46392;BME280;32098;49.448;7.904;2023-03-03T00:58:42;98468.31;;;-2.10;70.09
46392;BME280;32098;49.448;7.904;2023-03-03T01:01:11;98471.25;;;-2.13;71.76
46392;BME280;32098;49.448;7.904;2023-03-03T01:03:43;98475.53;;;-2.21;70.56
46392;BME280;32098;49.448;7.904;2023-03-03T01:06:11;98478.84;;;-2.19;71.14
46392;BME280;32098;49.448;7.904;2023-03-03T01:08:38;98467.09;;;-2.06;71.89
46392;BME280;32098;49.448;7.904;2023-03-03T01:11:09;98475.78;;;-2.05;72.19
46392;BME280;32098;49.448;7.904;2023-03-03T01:13:39;98465.34;;;-2.15;72.38
46392;BME280;32098;49.448;7.904;2023-03-03T01:16:08;98459.28;;;-2.15;71.38
46392;BME280;32098;49.448;7.904;2023-03-03T01:18:35;98467.19;;;-1.98;71.25
46392;BME280;32098;49.448;7.904;2023-03-03T01:21:02;98460.63;;;-2.11;70.69
46392;BME280;32098;49.448;7.904;2023-03-03T01:23:30;98470.66;;;-2.07;69.75
46392;BME280;32098;49.448;7.904;2023-03-03T01:25:57;98467.09;;;-2.06;69.86
46392;BME280;32098;49.448;7.904;2023-03-03T01:28:24;98466.81;;;-2.03;70.22
46392;BME280;32098;49.448;7.904;2023-03-03T01:30:50;98468.50;;;-2.11;69.77
46392;BME280;32098;49.448;7.904;2023-03-03T01:33:17;98469.56;;;-2.04;70.06
46392;BME280;32098;49.448;7.904;2023-03-03T01:35:45;98468.50;;;-2.11;69.95
46392;BME280;32098;49.448;7.904;2023-03-03T01:38:13;98456.63;;;-2.06;70.01
46392;BME280;32098;49.448;7.904;2023-03-03T01:40:40;98474.00;;;-2.14;69.28
46392;BME280;32098;49.448;7.904;2023-03-03T01:43:06;98473.31;;;-2.16;69.39
46392;BME280;32098;49.448;7.904;2023-03-03T01:51:01;98477.16;;;-2.11;70.04
46392;BME280;32098;49.448;7.904;2023-03-03T01:56:06;98468.66;;;-2.13;70.47
46392;BME280;32098;49.448;7.904;2023-03-03T01:58:36;98467.50;;;-2.01;69.66
46392;BME280;32098;49.448;7.904;2023-03-03T02:01:13;98467.56;;;-2.20;69.41
46392;BME280;32098;49.448;7.904;2023-03-03T02:03:42;98452.84;;;-2.21;70.56
46392;BME280;32098;49.448;7.904;2023-03-03T02:06:13;98456.56;;;-2.23;70.12
46392;BME280;32098;49.448;7.904;2023-03-03T02:08:52;98462.38;;;-2.39;69.47
46392;BME280;32098;49.448;7.904;2023-03-03T02:11:21;98454.41;;;-2.38;69.48
46392;BME280;32098;49.448;7.904;2023-03-03T02:13:48;98452.03;;;-2.31;69.70
46392;BME280;32098;49.448;7.904;2023-03-03T02:16:15;98449.97;;;-2.27;69.85
46392;BME280;32098;49.448;7.904;2023-03-03T02:18:42;98445.31;;;-2.33;68.36
46392;BME280;32098;49.448;7.904;2023-03-03T02:21:12;98452.19;;;-2.32;69.61
46392;BME280;32098;49.448;7.904;2023-03-03T02:26:30;98455.91;;;-2.35;68.45
46392;BME280;32098;49.448;7.904;2023-03-03T02:29:04;98461.88;;;-2.43;69.84
46392;BME280;32098;49.448;7.904;2023-03-03T02:31:31;98462.66;;;-2.42;70.98
46392;BME280;32098;49.448;7.904;2023-03-03T02:33:58;98462.25;;;-2.47;70.26
46392;BME280;32098;49.448;7.904;2023-03-03T02:36:30;98461.88;;;-2.43;69.70
46392;BME280;32098;49.448;7.904;2023-03-03T02:44:04;98451.88;;;-2.29;69.66
46392;BME280;32098;49.448;7.904;2023-03-03T02:46:34;98456.63;;;-2.43;69.49
46392;BME280;32098;49.448;7.904;2023-03-03T02:49:02;98446.19;;;-2.62;70.22
46392;BME280;32098;49.448;7.904;2023-03-03T02:51:29;98449.78;;;-2.72;69.71
46392;BME280;32098;49.448;7.904;2023-03-03T02:53:55;98459.94;;;-2.60;68.97
46392;BME280;32098;49.448;7.904;2023-03-03T02:56:24;98458.19;;;-2.69;70.26
46392;BME280;32098;49.448;7.904;2023-03-03T02:58:50;98462.16;;;-2.65;70.36
46392;BME280;32098;49.448;7.904;2023-03-03T03:01:17;98436.44;;;-2.69;69.83
46392;BME280;32098;49.448;7.904;2023-03-03T03:03:44;98452.53;;;-2.64;69.32
46392;BME280;32098;49.448;7.904;2023-03-03T03:06:14;98448.13;;;-2.64;70.34
46392;BME280;32098;49.448;7.904;2023-03-03T03:08:41;98448.56;;;-2.68;69.87
46392;BME280;32098;49.448;7.904;2023-03-03T03:11:07;98431.94;;;-2.77;70.09
46392;BME280;32098;49.448;7.904;2023-03-03T03:13:34;98449.25;;;-2.66;69.19
46392;BME280;32098;49.448;7.904;2023-03-03T03:16:01;98448.72;;;-2.79;69.88
46392;BME280;32098;49.448;7.904;2023-03-03T03:18:28;98461.13;;;-2.91;69.61
46392;BME280;32098;49.448;7.904;2023-03-03T03:20:55;98462.63;;;-2.98;69.68
46392;BME280;32098;49.448;7.904;2023-03-03T03:23:22;98460.69;;;-2.86;70.76
46392;BME280;32098;49.448;7.904;2023-03-03T03:25:49;98469.06;;;-2.92;70.47
46392;BME280;32098;49.448;7.904;2023-03-03T03:28:23;98469.50;;;-2.97;69.14
46392;BME280;32098;49.448;7.904;2023-03-03T03:30:50;98466.47;;;-2.92;70.01
46392;BME280;32098;49.448;7.904;2023-03-03T03:33:18;98460.03;;;-2.98;70.49
46392;BME280;32098;49.448;7.904;2023-03-03T03:35:45;98457.94;;;-3.04;71.75
46392;BME280;32098;49.448;7.904;2023-03-03T03:38:14;98467.97;;;-2.90;71.00
46392;BME280;32098;49.448;7.904;2023-03-03T03:40:42;98456.72;;;-3.00;70.91
46392;BME280;32098;49.448;7.904;2023-03-03T03:43:09;98466.88;;;-2.97;70.02
46392;BME280;32098;49.448;7.904;2023-03-03T03:45:36;98467.28;;;-2.92;71.50
46392;BME280;32098;49.448;7.904;2023-03-03T03:48:03;98464.97;;;-3.05;71.16
46392;BME280;32098;49.448;7.904;2023-03-03T03:50:31;98462.09;;;-3.11;71.38
46392;BME280;32098;49.448;7.904;2023-03-03T03:52:57;98462.50;;;-3.16;71.28
46392;BME280;32098;49.448;7.904;2023-03-03T03:55:24;98458.38;;;-3.18;71.19
46392;BME280;32098;49.448;7.904;2023-03-03T03:57:51;98453.00;;;-3.07;70.28
46392;BME280;32098;49.448;7.904;2023-03-03T04:00:18;98449.16;;;-3.03;71.09
46392;BME280;32098;49.448;7.904;2023-03-03T04:02:51;98457.28;;;-3.06;70.22
46392;BME280;32098;49.448;7.904;2023-03-03T04:05:19;98457.28;;;-3.16;70.42
46392;BME280;32098;49.448;7.904;2023-03-03T04:07:46;98459.91;;;-3.25;71.17
46392;BME280;32098;49.448;7.904;2023-03-03T04:10:14;98460.00;;;-3.27;70.93
46392;BME280;32098;49.448;7.904;2023-03-03T04:12:41;98468.25;;;-3.41;71.17
46392;BME280;32098;49.448;7.904;2023-03-03T04:15:12;98466.88;;;-3.45;71.04
46392;BME280;32098;49.448;7.904;2023-03-03T04:17:39;98471.03;;;-3.33;70.87
46392;BME280;32098;49.448;7.904;2023-03-03T04:20:08;98470.47;;;-3.17;70.47
46392;BME280;32098;49.448;7.904;2023-03-03T04:22:36;98465.81;;;-3.23;69.93
46392;BME280;32098;49.448;7.904;2023-03-03T04:25:05;98469.09;;;-3.21;69.58
46392;BME280;32098;49.448;7.904;2023-03-03T04:27:37;98460.97;;;-3.09;69.89
46392;BME280;32098;49.448;7.904;2023-03-03T04:30:05;98465.78;;;-3.14;70.18
46392;BME280;32098;49.448;7.904;2023-03-03T04:32:32;98462.34;;;-3.24;70.37
46392;BME280;32098;49.448;7.904;2023-03-03T04:35:03;98454.38;;;-3.22;69.95
46392;BME280;32098;49.448;7.904;2023-03-03T04:37:37;98460.00;;;-3.17;70.35
46392;BME280;32098;49.448;7.904;2023-03-03T04:40:06;98448.72;;;-3.37;70.18
46392;BME280;32098;49.448;7.904;2023-03-03T04:42:34;98469.22;;;-3.42;69.49
46392;BME280;32098;49.448;7.904;2023-03-03T04:45:02;98472.13;;;-3.26;68.41
46392;BME280;32098;49.448;7.904;2023-03-03T04:47:31;98475.41;;;-3.24;68.96
46392;BME280;32098;49.448;7.904;2023-03-03T04:49:58;98473.47;;;-3.12;68.73
46392;BME280;32098;49.448;7.904;2023-03-03T04:52:28;98467.16;;;-3.19;68.71
46392;BME280;32098;49.448;7.904;2023-03-03T04:54:55;98472.38;;;-3.29;69.92
46392;BME280;32098;49.448;7.904;2023-03-03T04:57:22;98476.78;;;-3.39;70.38
46392;BME280;32098;49.448;7.904;2023-03-03T04:59:49;98478.13;;;-3.44;70.18
46392;BME280;32098;49.448;7.904;2023-03-03T05:02:15;98490.50;;;-3.56;69.56
46392;BME280;32098;49.448;7.904;2023-03-03T05:04:42;98488.81;;;-3.57;69.68
46392;BME280;32098;49.448;7.904;2023-03-03T05:07:09;98494.22;;;-3.49;69.49
46392;BME280;32098;49.448;7.904;2023-03-03T05:09:35;98493.53;;;-3.41;70.29
46392;BME280;32098;49.448;7.904;2023-03-03T05:12:02;98497.25;;;-3.34;69.95
46392;BME280;32098;49.448;7.904;2023-03-03T05:14:29;98492.69;;;-3.42;69.91
46392;BME280;32098;49.448;7.904;2023-03-03T05:16:57;98499.03;;;-3.35;68.91
46392;BME280;32098;49.448;7.904;2023-03-03T05:19:23;98486.69;;;-3.33;69.03
46392;BME280;32098;49.448;7.904;2023-03-03T05:21:50;98501.94;;;-3.28;69.21
46392;BME280;32098;49.448;7.904;2023-03-03T05:24:17;98496.56;;;-3.27;69.25
46392;BME280;32098;49.448;7.904;2023-03-03T05:26:43;98496.56;;;-3.27;69.19
46392;BME280;32098;49.448;7.904;2023-03-03T05:29:10;98510.56;;;-3.47;68.99
46392;BME280;32098;49.448;7.904;2023-03-03T05:31:36;98494.91;;;-3.37;69.99
46392;BME280;32098;49.448;7.904;2023-03-03T05:34:03;98506.25;;;-3.57;70.58
46392;BME280;32098;49.448;7.904;2023-03-03T05:36:29;98502.44;;;-3.53;70.59
46392;BME280;32098;49.448;7.904;2023-03-03T05:38:56;98510.53;;;-3.56;69.19
46392;BME280;32098;49.448;7.904;2023-03-03T05:41:22;98509.69;;;-3.57;69.08
46392;BME280;32098;49.448;7.904;2023-03-03T05:43:49;98507.25;;;-3.58;68.55
46392;BME280;32098;49.448;7.904;2023-03-03T05:46:15;98504.47;;;-3.57;69.02
46392;BME280;32098;49.448;7.904;2023-03-03T05:48:42;98515.91;;;-3.58;69.05
46392;BME280;32098;49.448;7.904;2023-03-03T05:51:09;98517.69;;;-3.58;69.09
46392;BME280;32098;49.448;7.904;2023-03-03T05:53:35;98529.75;;;-3.57;68.98
46392;BME280;32098;49.448;7.904;2023-03-03T05:56:02;98529.72;;;-3.67;68.45
46392;BME280;32098;49.448;7.904;2023-03-03T05:58:29;98532.72;;;-3.81;69.54
46392;BME280;32098;49.448;7.904;2023-03-03T06:00:55;98533.44;;;-3.70;69.13
46392;BME280;32098;49.448;7.904;2023-03-03T06:03:22;98536.34;;;-3.63;69.43
46392;BME280;32098;49.448;7.904;2023-03-03T06:05:48;98544.56;;;-3.68;69.82
46392;BME280;32098;49.448;7.904;2023-03-03T06:08:15;98544.19;;;-3.63;70.67
46392;BME280;32098;49.448;7.904;2023-03-03T06:10:41;98543.59;;;-3.67;69.59
46392;BME280;32098;49.448;7.904;2023-03-03T06:13:10;98532.50;;;-3.69;69.87
46392;BME280;32098;49.448;7.904;2023-03-03T06:15:36;98537.97;;;-3.72;70.59
46392;BME280;32098;49.448;7.904;2023-03-03T06:18:03;98542.25;;;-3.61;69.83
46392;BME280;32098;49.448;7.904;2023-03-03T06:20:31;98548.38;;;-3.81;70.25
46392;BME280;32098;49.448;7.904;2023-03-03T06:22:58;98543.06;;;-4.00;70.26
46392;BME280;32098;49.448;7.904;2023-03-03T06:25:24;98548.16;;;-3.99;70.18
46392;BME280;32098;49.448;7.904;2023-03-03T06:27:51;98551.34;;;-3.95;70.33
46392;BME280;32098;49.448;7.904;2023-03-03T06:30:18;98550.31;;;-4.04;70.73
46392;BME280;32098;49.448;7.904;2023-03-03T06:32:45;98550.97;;;-4.11;71.48
46392;BME280;32098;49.448;7.904;2023-03-03T06:35:11;98551.25;;;-4.05;71.81
46392;BME280;32098;49.448;7.904;2023-03-03T06:37:38;98546.41;;;-3.89;71.32
46392;BME280;32098;49.448;7.904;2023-03-03T06:40:05;98548.22;;;-3.80;69.98
46392;BME280;32098;49.448;7.904;2023-03-03T06:42:32;98555.53;;;-3.74;70.25
46392;BME280;32098;49.448;7.904;2023-03-03T06:44:58;98557.13;;;-3.82;70.88
46392;BME280;32098;49.448;7.904;2023-03-03T06:47:25;98553.47;;;-3.70;70.58
46392;BME280;32098;49.448;7.904;2023-03-03T06:49:51;98555.84;;;-3.57;70.08
46392;BME280;32098;49.448;7.904;2023-03-03T06:52:22;98552.91;;;-3.43;69.71
46392;BME280;32098;49.448;7.904;2023-03-03T06:54:53;98556.69;;;-3.57;70.09
46392;BME280;32098;49.448;7.904;2023-03-03T06:57:29;98562.22;;;-3.50;71.64
46392;BME280;32098;49.448;7.904;2023-03-03T07:00:17;98569.75;;;-3.47;71.77
46392;BME280;32098;49.448;7.904;2023-03-03T07:02:47;98575.09;;;-3.58;71.61
46392;BME280;32098;49.448;7.904;2023-03-03T07:05:17;98589.56;;;-3.45;71.95
46392;BME280;32098;49.448;7.904;2023-03-03T07:07:44;98596.88;;;-3.39;71.94
46392;BME280;32098;49.448;7.904;2023-03-03T07:10:19;98598.56;;;-3.19;72.54
46392;BME280;32098;49.448;7.904;2023-03-03T07:12:48;98590.66;;;-2.98;71.48
46392;BME280;32098;49.448;7.904;2023-03-03T07:15:23;98602.63;;;-2.67;71.32
46392;BME280;32098;49.448;7.904;2023-03-03T07:17:54;98600.31;;;-2.60;70.40
46392;BME280;32098;49.448;7.904;2023-03-03T07:20:29;98594.09;;;-2.30;70.49
46392;BME280;32098;49.448;7.904;2023-03-03T07:22:57;98593.56;;;-1.78;70.36
46392;BME280;32098;49.448;7.904;2023-03-03T07:25:31;98602.44;;;-1.25;68.91
46392;BME280;32098;49.448;7.904;2023-03-03T07:28:34;98591.06;;;-0.71;66.65
46392;BME280;32098;49.448;7.904;2023-03-03T07:31:01;98595.31;;;-0.34;65.09
46392;BME280;32098;49.448;7.904;2023-03-03T07:33:34;98580.59;;;-0.10;64.39
46392;BME280;32098;49.448;7.904;2023-03-03T07:36:16;98579.09;;;0.13;63.30
46392;BME280;32098;49.448;7.904;2023-03-03T07:38:52;98595.72;;;0.48;62.31
46392;BME280;32098;49.448;7.904;2023-03-03T07:41:19;98600.13;;;0.81;62.14
46392;BME280;32098;49.448;7.904;2023-03-03T07:43:50;98603.19;;;1.02;61.44
46392;BME280;32098;49.448;7.904;2023-03-03T07:46:36;98606.66;;;1.11;61.04
46392;BME280;32098;49.448;7.904;2023-03-03T07:49:21;98610.31;;;1.26;61.61
46392;BME280;32098;49.448;7.904;2023-03-03T07:51:54;98601.47;;;1.67;60.35
46392;BME280;32098;49.448;7.904;2023-03-03T07:54:44;98606.91;;;1.90;59.78
46392;BME280;32098;49.448;7.904;2023-03-03T07:57:21;98603.28;;;2.23;58.43
46392;BME280;32098;49.448;7.904;2023-03-03T07:59:51;98613.25;;;2.52;58.44
46392;BME280;32098;49.448;7.904;2023-03-03T08:04:53;98616.56;;;3.01;56.44
46392;BME280;32098;49.448;7.904;2023-03-03T08:07:21;98609.06;;;3.20;55.88
46392;BME280;32098;49.448;7.904;2023-03-03T08:09:50;98604.16;;;3.40;55.09
46392;BME280;32098;49.448;7.904;2023-03-03T08:14:46;98608.03;;;3.75;54.32
46392;BME280;32098;49.448;7.904;2023-03-03T08:17:21;98613.78;;;4.01;53.80
46392;BME280;32098;49.448;7.904;2023-03-03T08:19:50;98604.78;;;4.25;52.70
46392;BME280;32098;49.448;7.904;2023-03-03T08:22:27;98606.38;;;4.48;52.84
46392;BME280;32098;49.448;7.904;2023-03-03T08:24:56;98605.47;;;4.56;51.83
46392;BME280;32098;49.448;7.904;2023-03-03T08:27:23;98608.47;;;4.82;52.05
46392;BME280;32098;49.448;7.904;2023-03-03T08:29:49;98616.13;;;5.06;52.25
46392;BME280;32098;49.448;7.904;2023-03-03T08:32:16;98613.09;;;5.38;51.40
46392;BME280;32098;49.448;7.904;2023-03-03T08:34:43;98612.09;;;5.61;51.02
46392;BME280;32098;49.448;7.904;2023-03-03T08:37:09;98613.94;;;5.81;50.64
46392;BME280;32098;49.448;7.904;2023-03-03T08:39:36;98612.53;;;6.07;50.46
46392;BME280;32098;49.448;7.904;2023-03-03T08:42:02;98618.47;;;5.87;51.37
46392;BME280;32098;49.448;7.904;2023-03-03T08:44:29;98621.28;;;4.64;53.98
46392;BME280;32098;49.448;7.904;2023-03-03T08:46:56;98630.38;;;3.87;56.18
46392;BME280;32098;49.448;7.904;2023-03-03T08:49:22;98630.75;;;3.38;58.99
46392;BME280;32098;49.448;7.904;2023-03-03T08:51:49;98640.03;;;2.88;61.31
46392;BME280;32098;49.448;7.904;2023-03-03T08:54:16;98630.72;;;2.61;61.93
46392;BME280;32098;49.448;7.904;2023-03-03T08:56:43;98639.19;;;2.79;61.41
46392;BME280;32098;49.448;7.904;2023-03-03T08:59:09;98626.78;;;2.41;62.57
46392;BME280;32098;49.448;7.904;2023-03-03T09:01:37;98626.78;;;2.41;62.96
46392;BME280;32098;49.448;7.904;2023-03-03T09:04:04;98611.78;;;2.41;60.89
46392;BME280;32098;49.448;7.904;2023-03-03T09:06:31;98630.53;;;2.54;60.71
46392;BME280;32098;49.448;7.904;2023-03-03T09:08:57;98633.78;;;2.72;60.31
46392;BME280;32098;49.448;7.904;2023-03-03T09:11:26;98638.63;;;2.61;61.30
46392;BME280;32098;49.448;7.904;2023-03-03T09:14:10;98639.41;;;2.69;60.97
46392;BME280;32098;49.448;7.904;2023-03-03T09:16:51;98649.44;;;2.90;61.08
46392;BME280;32098;49.448;7.904;2023-03-03T09:19:26;98646.16;;;2.72;61.71
46392;BME280;32098;49.448;7.904;2023-03-03T09:21:55;98647.00;;;3.11;61.30
46392;BME280;32098;49.448;7.904;2023-03-03T09:24:25;98645.69;;;2.68;61.50
46392;BME280;32098;49.448;7.904;2023-03-03T09:26:52;98651.88;;;2.92;61.87
46392;BME280;32098;49.448;7.904;2023-03-03T09:29:25;98656.19;;;2.85;60.67
46392;BME280;32098;49.448;7.904;2023-03-03T09:32:01;98659.78;;;3.00;60.98
46392;BME280;32098;49.448;7.904;2023-03-03T09:34:39;98658.50;;;2.88;61.24
46392;BME280;32098;49.448;7.904;2023-03-03T09:37:28;98634.69;;;3.04;60.62
46392;BME280;32098;49.448;7.904;2023-03-03T09:39:59;98659.63;;;3.32;61.02
46392;BME280;32098;49.448;7.904;2023-03-03T09:42:39;98652.31;;;3.42;60.60
46392;BME280;32098;49.448;7.904;2023-03-03T09:48:21;98654.00;;;3.35;60.12
46392;BME280;32098;49.448;7.904;2023-03-03T09:51:39;98650.53;;;3.65;58.98
46392;BME280;32098;49.448;7.904;2023-03-03T09:54:16;98653.66;;;3.69;58.30
46392;BME280;32098;49.448;7.904;2023-03-03T09:56:53;98655.34;;;3.31;59.24
46392;BME280;32098;49.448;7.904;2023-03-03T10:07:43;98659.56;;;3.71;57.03
46392;BME280;32098;49.448;7.904;2023-03-03T10:18:12;98672.97;;;3.92;56.46
46392;BME280;32098;49.448;7.904;2023-03-03T10:21:01;98665.75;;;4.08;56.18
46392;BME280;32098;49.448;7.904;2023-03-03T10:29:26;98662.03;;;4.69;55.29
46392;BME280;32098;49.448;7.904;2023-03-03T10:51:32;98643.34;;;4.86;54.18
46392;BME280;32098;49.448;7.904;2023-03-03T10:57:19;98670.16;;;4.97;54.95
46392;BME280;32098;49.448;7.904;2023-03-03T11:02:39;98659.56;;;4.68;54.83
46392;BME280;32098;49.448;7.904;2023-03-03T11:05:19;98659.78;;;4.81;53.99
46392;BME280;32098;49.448;7.904;2023-03-03T11:07:56;98645.72;;;4.66;54.59
46392;BME280;32098;49.448;7.904;2023-03-03T11:10:41;98652.34;;;4.62;53.34
46392;BME280;32098;49.448;7.904;2023-03-03T11:13:39;98650.53;;;4.62;54.78
46392;BME280;32098;49.448;7.904;2023-03-03T11:24:57;98649.50;;;5.22;52.21
46392;BME280;32098;49.448;7.904;2023-03-03T11:33:43;98656.47;;;4.79;53.46
46392;BME280;32098;49.448;7.904;2023-03-03T11:36:25;98648.72;;;4.92;53.09
46392;BME280;32098;49.448;7.904;2023-03-03T11:38:59;98655.53;;;4.57;54.01
46392;BME280;32098;49.448;7.904;2023-03-03T11:44:17;98657.00;;;4.74;53.33
46392;BME280;32098;49.448;7.904;2023-03-03T11:47:02;98652.34;;;4.47;53.28
46392;BME280;32098;49.448;7.904;2023-03-03T11:52:42;98640.06;;;4.32;54.21
46392;BME280;32098;49.448;7.904;2023-03-03T11:55:26;98652.06;;;4.57;53.46
46392;BME280;32098;49.448;7.904;2023-03-03T11:58:24;98653.16;;;4.48;52.82
46392;BME280;32098;49.448;7.904;2023-03-03T12:03:52;98645.16;;;4.56;53.34
46392;BME280;32098;49.448;7.904;2023-03-03T12:15:18;98640.75;;;4.48;54.02
46392;BME280;32098;49.448;7.904;2023-03-03T12:18:08;98646.25;;;4.61;53.59
46392;BME280;32098;49.448;7.904;2023-03-03T12:21:19;98651.97;;;4.36;54.03
46392;BME280;32098;49.448;7.904;2023-03-03T12:35:41;98647.28;;;4.23;54.81
46392;BME280;32098;49.448;7.904;2023-03-03T12:46:36;98628.44;;;4.41;55.67
46392;BME280;32098;49.448;7.904;2023-03-03T12:49:06;98624.19;;;4.69;55.09
46392;BME280;32098;49.448;7.904;2023-03-03T12:51:54;98617.13;;;5.05;54.05
46392;BME280;32098;49.448;7.904;2023-03-03T12:54:43;98612.38;;;5.30;53.88
46392;BME280;32098;49.448;7.904;2023-03-03T12:57:32;98609.31;;;5.48;54.24
46392;BME280;32098;49.448;7.904;2023-03-03T13:05:28;98607.66;;;4.96;55.20
46392;BME280;32098;49.448;7.904;2023-03-03T13:08:15;98614.56;;;5.12;52.07
46392;BME280;32098;49.448;7.904;2023-03-03T13:10:54;98611.63;;;5.36;53.36
46392;BME280;32098;49.448;7.904;2023-03-03T13:13:26;98605.66;;;5.49;53.79
46392;BME280;32098;49.448;7.904;2023-03-03T13:18:52;98604.25;;;5.53;51.08
46392;BME280;32098;49.448;7.904;2023-03-03T13:21:41;98607.97;;;5.79;51.49
46392;BME280;32098;49.448;7.904;2023-03-03T13:24:25;98610.09;;;5.84;51.97
46392;BME280;32098;49.448;7.904;2023-03-03T13:27:02;98606.91;;;5.95;52.97
46392;BME280;32098;49.448;7.904;2023-03-03T13:29:36;98613.09;;;5.60;50.52
46392;BME280;32098;49.448;7.904;2023-03-03T13:32:13;98600.22;;;5.78;51.54
46392;BME280;32098;49.448;7.904;2023-03-03T13:37:42;98590.47;;;5.78;50.69
46392;BME280;32098;49.448;7.904;2023-03-03T13:40:15;98588.69;;;5.64;51.75
46392;BME280;32098;49.448;7.904;2023-03-03T13:42:47;98584.28;;;5.71;52.09
46392;BME280;32098;49.448;7.904;2023-03-03T13:46:05;98590.63;;;5.98;49.95
46392;BME280;32098;49.448;7.904;2023-03-03T13:51:13;98588.97;;;5.97;49.23
46392;BME280;32098;49.448;7.904;2023-03-03T13:53:52;98593.66;;;6.16;49.40
46392;BME280;32098;49.448;7.904;2023-03-03T13:56:42;98591.56;;;6.12;50.34
46392;BME280;32098;49.448;7.904;2023-03-03T14:04:53;98583.69;;;5.97;49.83
46392;BME280;32098;49.448;7.904;2023-03-03T14:10:20;98570.59;;;6.17;49.91
46392;BME280;32098;49.448;7.904;2023-03-03T14:15:35;98574.78;;;6.04;49.73
46392;BME280;32098;49.448;7.904;2023-03-03T14:18:28;98574.09;;;5.96;50.39
46392;BME280;32098;49.448;7.904;2023-03-03T14:21:18;98569.13;;;5.86;49.46
46392;BME280;32098;49.448;7.904;2023-03-03T14:23:52;98578.00;;;6.00;50.08
46392;BME280;32098;49.448;7.904;2023-03-03T14:26:22;98572.66;;;6.21;49.49
46392;BME280;32098;49.448;7.904;2023-03-03T14:28:50;98552.34;;;6.07;49.59
46392;BME280;32098;49.448;7.904;2023-03-03T14:31:25;98569.38;;;5.91;49.25
46392;BME280;32098;49.448;7.904;2023-03-03T14:33:58;98565.47;;;5.87;49.34
46392;BME280;32098;49.448;7.904;2023-03-03T14:36:35;98556.69;;;6.15;49.02
46392;BME280;32098;49.448;7.904;2023-03-03T14:39:36;98556.06;;;5.85;49.38
46392;BME280;32098;49.448;7.904;2023-03-03T14:42:12;98549.41;;;5.95;49.76
46392;BME280;32098;49.448;7.904;2023-03-03T14:47:23;98544.84;;;5.83;48.86
46392;BME280;32098;49.448;7.904;2023-03-03T14:49:50;98547.59;;;5.75;49.78
46392;BME280;32098;49.448;7.904;2023-03-03T14:52:21;98543.09;;;5.69;50.20
46392;BME280;32098;49.448;7.904;2023-03-03T14:54:54;98543.59;;;5.79;49.85
46392;BME280;32098;49.448;7.904;2023-03-03T15:02:37;98539.69;;;6.02;49.53
46392;BME280;32098;49.448;7.904;2023-03-03T15:05:22;98545.69;;;5.90;50.21
46392;BME280;32098;49.448;7.904;2023-03-03T15:08:06;98540.03;;;5.93;49.90
46392;BME280;32098;49.448;7.904;2023-03-03T15:10:44;98531.50;;;5.97;49.86
46392;BME280;32098;49.448;7.904;2023-03-03T15:18:30;98540.72;;;6.29;48.51
46392;BME280;32098;49.448;7.904;2023-03-03T15:21:04;98541.94;;;6.33;48.52
46392;BME280;32098;49.448;7.904;2023-03-03T15:24:07;98537.63;;;5.98;48.44
46392;BME280;32098;49.448;7.904;2023-03-03T15:26:51;98540.88;;;6.00;48.52
46392;BME280;32098;49.448;7.904;2023-03-03T15:29:31;98542.28;;;5.96;48.21
46392;BME280;32098;49.448;7.904;2023-03-03T15:35:25;98507.88;;;6.02;49.96
46392;BME280;32098;49.448;7.904;2023-03-03T15:38:17;98553.66;;;5.90;50.64
46392;BME280;32098;49.448;7.904;2023-03-03T15:40:54;98536.19;;;5.74;50.76
46392;BME280;32098;49.448;7.904;2023-03-03T15:43:44;98536.13;;;5.68;51.07
46392;BME280;32098;49.448;7.904;2023-03-03T15:46:34;98548.94;;;5.64;50.90
46392;BME280;32098;49.448;7.904;2023-03-03T15:49:19;98538.88;;;5.53;50.99
46392;BME280;32098;49.448;7.904;2023-03-03T15:52:42;98551.81;;;5.42;52.12
46392;BME280;32098;49.448;7.904;2023-03-03T15:57:51;98542.66;;;5.44;51.86
46392;BME280;32098;49.448;7.904;2023-03-03T16:00:33;98547.00;;;5.52;51.68
46392;BME280;32098;49.448;7.904;2023-03-03T16:03:13;98556.69;;;5.45;52.15
46392;BME280;32098;49.448;7.904;2023-03-03T16:05:52;98551.34;;;5.38;52.30
46392;BME280;32098;49.448;7.904;2023-03-03T16:08:27;98556.59;;;5.31;52.69
46392;BME280;32098;49.448;7.904;2023-03-03T16:13:38;98554.22;;;5.07;53.22
46392;BME280;32098;49.448;7.904;2023-03-03T16:19:02;98568.00;;;5.17;52.92
46392;BME280;32098;49.448;7.904;2023-03-03T16:24:51;98562.06;;;5.15;52.90
46392;BME280;32098;49.448;7.904;2023-03-03T16:27:29;98574.41;;;5.08;53.08
46392;BME280;32098;49.448;7.904;2023-03-03T16:30:27;98575.91;;;4.82;54.13
46392;BME280;32098;49.448;7.904;2023-03-03T16:35:57;98569.97;;;4.80;54.07
46392;BME280;32098;49.448;7.904;2023-03-03T16:38:36;98579.50;;;4.74;54.29
46392;BME280;32098;49.448;7.904;2023-03-03T16:41:09;98582.94;;;4.60;54.71
46392;BME280;32098;49.448;7.904;2023-03-03T16:43:58;98587.59;;;4.58;54.79
46392;BME280;32098;49.448;7.904;2023-03-03T16:46:40;98586.22;;;4.62;55.27
46392;BME280;32098;49.448;7.904;2023-03-03T16:51:52;98590.44;;;4.71;54.75